Time;durP1;ratioP1;P1;durP2;ratioP2;P2;SDS_P1;SDS_P2;PMS_P1;PMS_P2;Temp;Humidity;BMP_temperature;BMP_pressure;BME280_temperature;BME280_humidity;BME280_pressure;Samples;Min_cycle;Max_cycle;Signal;HPM_P1;HPM_P2
2023/06/11 00:02:06;;;;;;;;;;;;;;;28.75;80.06;98921.06;5058765;28;19916;-77
2023/06/11 00:04:34;;;;;;;;;;;;;;;29.54;77.62;98905.31;5059972;28;20350;-77
2023/06/11 00:07:00;;;;;;;;;;;;;;;29.90;77.84;98898.66;5059762;28;19924;-76
2023/06/11 00:09:26;;;;;;;;;;;;;;;29.45;75.15;98895.72;5059695;28;19912;-77
2023/06/11 00:11:53;;;;;;;;;;;;;;;29.91;77.90;98901.13;5056764;28;20034;-77
2023/06/11 00:14:19;;;;;;;;;;;;;;;29.94;77.67;98914.06;5057054;28;19928;-77
2023/06/11 00:16:45;;;;;;;;;;;;;;;30.95;70.61;98882.88;5058965;28;20445;-77
2023/06/11 00:19:11;;;;;;;;;;;;;;;31.37;68.59;98875.22;5058571;28;19924;-77
2023/06/11 00:21:40;;;;;;;;;;;;;;;31.49;68.52;98867.63;5058040;28;19951;-77
2023/06/11 00:24:06;;;;;;;;;;;;;;;31.27;70.48;98892.31;5057909;28;19920;-77
2023/06/11 00:26:33;;;;;;;;;;;;;;;31.08;69.98;98881.41;5059159;28;19931;-77
2023/06/11 00:28:58;;;;;;;;;;;;;;;31.34;70.06;98891.53;5058313;28;19916;-77
2023/06/11 00:31:23;;;;;;;;;;;;;;;31.41;69.23;98890.66;5059298;28;20392;-77
2023/06/11 00:33:48;;;;;;;;;;;;;;;31.42;67.25;98880.84;5060043;28;20022;-77
2023/06/11 00:36:13;;;;;;;;;;;;;;;31.25;67.86;98894.31;5056271;28;20007;-77
2023/06/11 00:38:40;;;;;;;;;;;;;;;31.10;69.61;98906.81;5060065;28;19948;-78
2023/06/11 00:41:06;;;;;;;;;;;;;;;31.01;71.58;98908.72;5058941;28;20393;-77
2023/06/11 00:43:31;;;;;;;;;;;;;;;30.88;71.87;98913.03;5058073;28;19920;-77
2023/06/11 00:45:56;;;;;;;;;;;;;;;30.97;71.47;98906.59;5058348;28;19920;-78
2023/06/11 00:48:22;;;;;;;;;;;;;;;30.34;73.20;98917.47;5057767;28;20019;-77
2023/06/11 00:50:48;;;;;;;;;;;;;;;30.41;73.94;98913.09;5059115;28;19967;-78
2023/06/11 00:53:14;;;;;;;;;;;;;;;30.23;74.65;98923.16;5058111;28;19921;-78
2023/06/11 00:55:39;;;;;;;;;;;;;;;30.32;76.89;98932.75;5056099;28;20978;-78
2023/06/11 00:58:13;;;;;;;;;;;;;;;30.60;74.40;98922.38;5056567;28;20372;-78
2023/06/11 01:00:38;;;;;;;;;;;;;;;28.40;81.98;98971.75;5057876;28;20285;-77
2023/06/11 01:03:07;;;;;;;;;;;;;;;28.13;84.37;98978.97;5057534;28;19920;-77
2023/06/11 01:05:36;;;;;;;;;;;;;;;26.60;91.45;99008.66;5057502;28;19920;-78
2023/06/11 01:08:01;;;;;;;;;;;;;;;26.26;94.95;99004.81;5056774;28;19921;-78
2023/06/11 01:10:26;;;;;;;;;;;;;;;27.00;95.48;98992.28;5055668;28;19951;-76
2023/06/11 01:12:52;;;;;;;;;;;;;;;26.38;92.53;98971.09;5057361;28;20015;-78
2023/06/11 01:15:18;;;;;;;;;;;;;;;25.33;97.73;99011.88;5057378;28;20038;-78
2023/06/11 01:17:46;;;;;;;;;;;;;;;26.40;92.95;98968.31;5057577;28;20035;-77
2023/06/11 01:20:12;;;;;;;;;;;;;;;26.86;93.71;98969.06;5057186;28;19927;-78
2023/06/11 01:22:41;;;;;;;;;;;;;;;26.60;92.12;98966.38;5058285;28;19927;-78
2023/06/11 01:25:15;;;;;;;;;;;;;;;26.89;92.85;98979.31;5057578;28;19916;-77
2023/06/11 01:27:43;;;;;;;;;;;;;;;27.79;89.87;98945.44;5056941;28;19916;-78
2023/06/11 01:30:09;;;;;;;;;;;;;;;26.46;92.90;98986.22;5058009;28;19970;-77
2023/06/11 01:32:36;;;;;;;;;;;;;;;27.24;93.32;98972.31;5058961;28;19959;-77
2023/06/11 01:35:01;;;;;;;;;;;;;;;26.19;93.93;98980.00;5057763;28;19924;-77
2023/06/11 01:37:29;;;;;;;;;;;;;;;27.04;93.46;98964.53;5056688;28;20275;-77
2023/06/11 01:39:54;;;;;;;;;;;;;;;26.94;94.39;98977.06;5056728;28;19917;-77
2023/06/11 01:42:20;;;;;;;;;;;;;;;26.50;97.33;98984.91;5058675;28;19935;-77
2023/06/11 01:44:45;;;;;;;;;;;;;;;25.54;96.72;98993.22;5057243;28;19916;-77
2023/06/11 01:47:10;;;;;;;;;;;;;;;26.53;97.22;98974.06;5054801;28;19920;-77
2023/06/11 01:49:35;;;;;;;;;;;;;;;26.56;94.50;98957.91;5055988;28;19931;-77
2023/06/11 01:52:00;;;;;;;;;;;;;;;27.05;94.39;98963.56;5059058;28;20379;-77
2023/06/11 01:54:26;;;;;;;;;;;;;;;26.31;96.11;98975.31;5057993;28;20390;-77
2023/06/11 01:56:51;;;;;;;;;;;;;;;26.03;99.84;98998.31;5057585;28;19924;-77
2023/06/11 01:59:17;;;;;;;;;;;;;;;24.75;100.00;99011.97;5055957;28;19942;-77
2023/06/11 02:01:43;;;;;;;;;;;;;;;26.29;100.00;98988.66;5057473;28;19924;-78
2023/06/11 02:04:08;;;;;;;;;;;;;;;25.52;97.45;98983.78;5058133;28;20003;-78
2023/06/11 02:06:33;;;;;;;;;;;;;;;24.84;100.00;99016.41;5058449;28;19982;-77
2023/06/11 02:08:58;;;;;;;;;;;;;;;24.83;100.00;99026.06;5056050;28;19927;-78
2023/06/11 02:11:24;;;;;;;;;;;;;;;26.46;98.73;98973.00;5055038;28;20016;-78
2023/06/11 02:13:49;;;;;;;;;;;;;;;25.76;100.00;98997.28;5057408;28;20835;-79
2023/06/11 02:16:14;;;;;;;;;;;;;;;24.42;100.00;99027.97;5053807;28;19927;-76
2023/06/11 02:18:40;;;;;;;;;;;;;;;26.03;100.00;98998.31;5055330;28;19920;-78
2023/06/11 02:21:05;;;;;;;;;;;;;;;26.32;100.00;98982.28;5056371;28;19923;-77
2023/06/11 02:23:30;;;;;;;;;;;;;;;26.84;100.00;98968.38;5058029;28;19924;-78
2023/06/11 02:25:55;;;;;;;;;;;;;;;27.60;94.60;98946.53;5057035;28;20313;-77
2023/06/11 02:28:21;;;;;;;;;;;;;;;26.71;94.65;98960.88;5056605;28;19925;-78
2023/06/11 02:30:46;;;;;;;;;;;;;;;26.80;96.04;98965.22;5057225;28;19923;-77
2023/06/11 02:33:11;;;;;;;;;;;;;;;25.44;98.93;98987.97;5056438;28;19924;-78
2023/06/11 02:35:36;;;;;;;;;;;;;;;25.95;100.00;98991.09;5058293;28;19931;-78
2023/06/11 02:38:02;;;;;;;;;;;;;;;25.87;100.00;98998.94;5057855;28;19924;-78
2023/06/11 02:40:27;;;;;;;;;;;;;;;25.98;99.68;98971.50;5057696;28;19920;-78
2023/06/11 02:42:52;;;;;;;;;;;;;;;26.69;97.54;98958.38;5056477;28;20294;-78
2023/06/11 02:45:17;;;;;;;;;;;;;;;25.15;100.00;98997.75;5056512;28;20397;-77
2023/06/11 02:47:42;;;;;;;;;;;;;;;25.52;100.00;98989.06;5056475;28;19920;-78
2023/06/11 02:50:08;;;;;;;;;;;;;;;26.36;100.00;98965.13;5058194;28;20415;-78
2023/06/11 02:52:33;;;;;;;;;;;;;;;25.69;99.35;98977.75;5058181;28;20382;-77
2023/06/11 02:54:58;;;;;;;;;;;;;;;24.91;100.00;98998.22;5055128;28;19920;-78
2023/06/11 02:57:23;;;;;;;;;;;;;;;25.86;100.00;98981.41;5056174;28;19920;-77
2023/06/11 02:59:49;;;;;;;;;;;;;;;26.44;98.41;98953.84;5054623;28;19920;-78
2023/06/11 03:02:14;;;;;;;;;;;;;;;25.02;100.00;98992.78;5060729;28;19917;-77
2023/06/11 03:04:39;;;;;;;;;;;;;;;25.01;100.00;98991.94;5060692;28;19926;-78
2023/06/11 03:07:05;;;;;;;;;;;;;;;25.58;100.00;98988.50;5061396;28;19926;-78
2023/06/11 03:09:30;;;;;;;;;;;;;;;25.27;100.00;98991.34;5057390;28;19927;-78
2023/06/11 03:11:55;;;;;;;;;;;;;;;25.31;100.00;99003.28;5062515;28;19920;-79
2023/06/11 03:14:21;;;;;;;;;;;;;;;24.91;100.00;98993.78;5060976;28;19947;-78
2023/06/11 03:16:46;;;;;;;;;;;;;;;25.90;100.00;98997.81;5060535;28;20345;-78
2023/06/11 03:19:11;;;;;;;;;;;;;;;26.24;99.20;98959.25;5057265;28;19931;-77
2023/06/11 03:21:36;;;;;;;;;;;;;;;26.07;99.61;98973.28;5060469;28;20485;-77
2023/06/11 03:24:02;;;;;;;;;;;;;;;26.33;98.42;98956.69;5061446;28;19960;-77
2023/06/11 03:26:27;;;;;;;;;;;;;;;26.98;97.11;98954.63;5059687;28;19975;-77
2023/06/11 03:28:53;;;;;;;;;;;;;;;25.61;99.54;98977.63;5060725;28;19924;-77
2023/06/11 03:31:18;;;;;;;;;;;;;;;26.52;98.16;98967.09;5058363;28;19920;-77
2023/06/11 03:33:43;;;;;;;;;;;;;;;26.38;97.01;98959.72;5059921;28;19916;-76
2023/06/11 03:36:09;;;;;;;;;;;;;;;26.78;97.36;98953.97;5061380;28;19916;-78
2023/06/11 03:38:35;;;;;;;;;;;;;;;25.21;99.04;98984.03;5058544;28;19942;-77
2023/06/11 03:41:00;;;;;;;;;;;;;;;25.98;98.85;98975.00;5058443;28;19934;-78
2023/06/11 03:43:25;;;;;;;;;;;;;;;25.37;100.00;98997.44;5058530;28;20030;-78
2023/06/11 03:45:51;;;;;;;;;;;;;;;26.18;100.00;98995.97;5060888;28;19924;-78
2023/06/11 03:48:16;;;;;;;;;;;;;;;25.59;99.21;98979.59;5059685;28;20419;-79
2023/06/11 03:50:41;;;;;;;;;;;;;;;25.39;100.00;99003.41;5062692;28;19921;-78
2023/06/11 03:53:06;;;;;;;;;;;;;;;24.35;100.00;99007.59;5062341;28;19924;-78
2023/06/11 03:55:32;;;;;;;;;;;;;;;25.27;100.00;98996.63;5061981;28;20008;-79
2023/06/11 03:57:57;;;;;;;;;;;;;;;25.64;99.60;98975.56;5061937;28;19941;-79
2023/06/11 04:00:22;;;;;;;;;;;;;;;25.47;100.00;98978.94;5062028;28;19916;-79
2023/06/11 04:02:47;;;;;;;;;;;;;;;25.80;100.00;98993.41;5061452;28;19923;-79
2023/06/11 04:05:13;;;;;;;;;;;;;;;26.76;98.64;98961.22;5062800;28;19916;-79
2023/06/11 04:07:39;;;;;;;;;;;;;;;25.72;99.68;98984.53;5060688;28;19920;-79
2023/06/11 04:10:06;;;;;;;;;;;;;;;25.44;100.00;99003.81;5061215;28;19979;-79
2023/06/11 04:12:31;;;;;;;;;;;;;;;25.88;100.00;98996.13;5058316;28;20005;-79
2023/06/11 04:14:56;;;;;;;;;;;;;;;25.60;100.00;99021.66;5058517;28;20022;-79
2023/06/11 04:17:21;;;;;;;;;;;;;;;25.48;100.00;98999.09;5061037;28;20482;-79
2023/06/11 04:19:47;;;;;;;;;;;;;;;25.63;100.00;98996.78;5061591;28;20418;-79
2023/06/11 04:22:12;;;;;;;;;;;;;;;25.75;100.00;99007.97;5061282;28;20374;-79
2023/06/11 04:24:37;;;;;;;;;;;;;;;26.53;100.00;98989.91;5059291;28;20394;-79
2023/06/11 04:27:02;;;;;;;;;;;;;;;27.01;98.11;98972.81;5061793;28;19920;-78
2023/06/11 04:29:29;;;;;;;;;;;;;;;26.00;99.29;98995.94;5059524;28;19925;-78
2023/06/11 04:31:54;;;;;;;;;;;;;;;26.77;96.05;98975.25;5061772;28;20004;-78
2023/06/11 04:34:20;;;;;;;;;;;;;;;27.13;97.04;98982.13;5061348;28;20002;-77
2023/06/11 04:36:47;;;;;;;;;;;;;;;26.47;96.93;98985.22;5060819;28;19927;-79
2023/06/11 04:39:12;;;;;;;;;;;;;;;26.82;96.38;98970.34;5057407;28;20426;-79
2023/06/11 04:41:37;;;;;;;;;;;;;;;27.47;92.76;98957.53;5060506;28;19955;-78
2023/06/11 04:44:03;;;;;;;;;;;;;;;26.54;94.93;98975.69;5059734;28;20740;-78
2023/06/11 04:46:28;;;;;;;;;;;;;;;28.08;91.51;98955.63;5058874;28;20298;-78
2023/06/11 04:48:58;;;;;;;;;;;;;;;28.89;89.32;98940.78;5059509;28;19920;-79
2023/06/11 04:51:23;;;;;;;;;;;;;;;28.47;88.55;98952.41;5060258;28;19916;-79
2023/06/11 04:53:52;;;;;;;;;;;;;;;28.40;91.85;98964.63;5062025;28;19924;-78
2023/06/11 04:56:17;;;;;;;;;;;;;;;26.52;95.35;99014.63;5060503;28;19921;-78
2023/06/11 04:58:42;;;;;;;;;;;;;;;26.35;99.06;99023.41;5042097;28;19920;-78
2023/06/11 05:01:08;;;;;;;;;;;;;;;26.50;99.17;99006.88;5060579;28;19940;-78
2023/06/11 05:03:37;;;;;;;;;;;;;;;26.38;98.28;99002.78;5060376;28;19922;-78
2023/06/11 05:06:02;;;;;;;;;;;;;;;26.56;98.76;98994.91;5060493;28;19924;-79
2023/06/11 05:08:28;;;;;;;;;;;;;;;26.15;100.00;99012.94;5057695;28;20019;-78
2023/06/11 05:10:59;;;;;;;;;;;;;;;26.21;100.00;99012.38;5060162;28;19921;-77
2023/06/11 05:13:25;;;;;;;;;;;;;;;26.63;100.00;98995.94;5064203;28;19982;-79
2023/06/11 05:15:51;;;;;;;;;;;;;;;26.66;99.59;98985.09;5060050;28;20374;-78
2023/06/11 05:18:16;;;;;;;;;;;;;;;26.68;98.72;98985.75;5059859;28;19921;-78
2023/06/11 05:20:41;;;;;;;;;;;;;;;27.27;98.36;98982.56;5060812;28;20744;-79
2023/06/11 05:23:06;;;;;;;;;;;;;;;27.24;98.58;98982.88;5061345;28;20007;-79
2023/06/11 05:25:32;;;;;;;;;;;;;;;27.35;96.57;98974.69;5059363;28;19920;-79
2023/06/11 05:28:00;;;;;;;;;;;;;;;28.32;93.96;98957.47;5061388;28;20383;-79
2023/06/11 05:30:33;;;;;;;;;;;;;;;28.82;89.76;98941.63;5062005;28;19959;-79
2023/06/11 05:32:58;;;;;;;;;;;;;;;27.20;93.32;98986.78;5062763;28;19920;-79
2023/06/11 05:35:23;;;;;;;;;;;;;;;28.50;92.76;98956.53;5060539;28;19946;-79
2023/06/11 05:37:49;;;;;;;;;;;;;;;29.13;92.46;98953.19;5060787;28;19921;-79
2023/06/11 05:40:14;;;;;;;;;;;;;;;29.61;91.24;98942.59;5062562;28;20033;-79
2023/06/11 05:42:40;;;;;;;;;;;;;;;30.73;83.54;98918.31;5062703;28;20012;-79
2023/06/11 05:45:06;;;;;;;;;;;;;;;30.42;84.26;98933.34;5065702;28;19952;-77
2023/06/11 05:47:32;;;;;;;;;;;;;;;32.64;77.80;98893.34;5061463;28;19920;-78
2023/06/11 05:49:57;;;;;;;;;;;;;;;33.13;74.92;98903.13;5063832;28;19999;-79
2023/06/11 05:52:22;;;;;;;;;;;;;;;33.00;73.62;98905.69;5064997;28;20480;-78
2023/06/11 05:54:48;;;;;;;;;;;;;;;31.26;77.65;98943.03;5062814;28;20022;-78
2023/06/11 05:57:31;;;;;;;;;;;;;;;31.19;80.26;98942.94;5061096;28;19962;-78
2023/06/11 05:59:56;;;;;;;;;;;;;;;31.54;77.14;98932.56;5059448;28;19920;-79
2023/06/11 06:02:21;;;;;;;;;;;;;;;30.79;80.56;98960.09;5061405;28;19947;-78
2023/06/11 06:04:47;;;;;;;;;;;;;;;31.90;75.72;98923.78;5058435;28;19924;-80
2023/06/11 06:07:13;;;;;;;;;;;;;;;32.20;76.80;98924.53;5060457;28;20326;-78
2023/06/11 06:09:38;;;;;;;;;;;;;;;32.45;75.28;98924.94;5058688;28;20007;-78
2023/06/11 06:12:04;;;;;;;;;;;;;;;32.40;75.86;98924.72;5059723;28;20035;-78
2023/06/11 06:14:29;;;;;;;;;;;;;;;33.25;71.97;98922.88;5060435;28;20057;-79
2023/06/11 06:16:54;;;;;;;;;;;;;;;33.50;74.19;98946.41;5060300;28;19942;-79
2023/06/11 06:19:19;;;;;;;;;;;;;;;33.34;73.49;98935.03;5061258;28;19917;-79
2023/06/11 06:21:45;;;;;;;;;;;;;;;31.86;74.04;98955.31;5060079;28;19930;-79
2023/06/11 06:24:10;;;;;;;;;;;;;;;33.40;72.06;98929.97;5059883;28;19987;-78
2023/06/11 06:26:37;;;;;;;;;;;;;;;31.39;74.54;98969.00;5062388;28;20012;-78
2023/06/11 06:29:02;;;;;;;;;;;;;;;32.03;76.78;98955.91;5059483;28;19920;-80
2023/06/11 06:31:27;;;;;;;;;;;;;;;30.88;81.64;98982.16;5062349;28;19920;-78
2023/06/11 06:33:52;;;;;;;;;;;;;;;31.40;77.87;98970.66;5061621;28;19920;-78
2023/06/11 06:36:19;;;;;;;;;;;;;;;32.54;76.54;98941.66;5063950;28;19917;-79
2023/06/11 06:38:45;;;;;;;;;;;;;;;30.22;81.81;98994.06;5063611;28;19916;-79
2023/06/11 06:41:10;;;;;;;;;;;;;;;32.39;77.92;98949.72;5066274;28;19917;-79
2023/06/11 06:43:35;;;;;;;;;;;;;;;31.34;77.85;98960.72;5063427;28;20638;-79
2023/06/11 06:46:01;;;;;;;;;;;;;;;31.13;80.55;98980.09;5064238;28;21241;-78
2023/06/11 06:48:26;;;;;;;;;;;;;;;31.62;81.06;98975.06;5060484;28;19984;-79
2023/06/11 06:50:51;;;;;;;;;;;;;;;30.41;83.29;98998.13;5063976;28;19920;-79
2023/06/11 06:53:16;;;;;;;;;;;;;;;31.59;81.64;98974.59;5064506;28;20394;-78
2023/06/11 06:55:43;;;;;;;;;;;;;;;30.14;83.20;98995.94;5064327;28;19927;-78
2023/06/11 06:58:08;;;;;;;;;;;;;;;31.45;82.48;98976.28;5063169;28;19917;-78
2023/06/11 07:00:33;;;;;;;;;;;;;;;30.87;80.80;98980.53;5062835;28;20047;-78
2023/06/11 07:02:58;;;;;;;;;;;;;;;30.13;83.11;98999.59;5065652;28;19920;-78
2023/06/11 07:05:24;;;;;;;;;;;;;;;32.40;81.35;98962.03;5066752;28;19971;-78
2023/06/11 07:07:49;;;;;;;;;;;;;;;32.35;78.80;98975.09;5066277;28;19958;-78
2023/06/11 07:10:14;;;;;;;;;;;;;;;33.32;71.73;98945.13;5064026;28;19916;-77
2023/06/11 07:12:39;;;;;;;;;;;;;;;32.45;75.67;98970.25;5064555;28;20275;-77
2023/06/11 07:15:05;;;;;;;;;;;;;;;31.48;76.19;98985.75;5065160;28;19952;-79
2023/06/11 07:17:30;;;;;;;;;;;;;;;31.86;76.74;98987.25;5060953;28;20306;-80
2023/06/11 07:19:55;;;;;;;;;;;;;;;32.78;70.46;98955.63;5065146;28;20365;-79
2023/06/11 07:22:21;;;;;;;;;;;;;;;31.56;73.43;98986.47;5066338;28;19920;-78
2023/06/11 07:24:48;;;;;;;;;;;;;;;30.33;75.41;98997.34;5065408;28;20007;-78
2023/06/11 07:27:16;;;;;;;;;;;;;;;32.44;68.55;98949.97;5066045;28;19921;-78
2023/06/11 07:29:41;;;;;;;;;;;;;;;31.86;68.11;98959.78;5065950;28;19920;-80
2023/06/11 07:32:06;;;;;;;;;;;;;;;32.21;66.36;98958.16;5065933;28;20637;-78
2023/06/11 07:34:32;;;;;;;;;;;;;;;33.20;66.39;98945.84;5061106;28;19956;-79
2023/06/11 07:36:57;;;;;;;;;;;;;;;32.34;67.79;98962.78;5065098;28;20019;-78
2023/06/11 07:39:22;;;;;;;;;;;;;;;33.41;65.45;98942.28;5065220;28;20627;-79
2023/06/11 07:41:47;;;;;;;;;;;;;;;33.60;60.01;98936.25;5064765;28;20400;-79
2023/06/11 07:44:13;;;;;;;;;;;;;;;32.81;63.81;98960.56;5062764;28;20502;-79
2023/06/11 07:46:38;;;;;;;;;;;;;;;35.69;61.47;98929.66;5064116;28;19916;-78
2023/06/11 07:49:03;;;;;;;;;;;;;;;34.00;58.06;98938.19;5044524;28;19943;-78
2023/06/11 07:51:29;;;;;;;;;;;;;;;35.18;57.83;98938.47;5061805;28;19943;-78
2023/06/11 07:53:56;;;;;;;;;;;;;;;34.94;60.76;98953.31;5063956;28;20315;-77
2023/06/11 07:56:21;;;;;;;;;;;;;;;32.61;62.16;98973.72;5061992;28;19960;-76
2023/06/11 07:58:47;;;;;;;;;;;;;;;33.07;66.58;98984.78;5058847;28;19969;-77
2023/06/11 08:01:12;;;;;;;;;;;;;;;33.04;63.93;98970.97;5060961;28;19950;-79
2023/06/11 08:03:37;;;;;;;;;;;;;;;32.78;63.11;98968.94;5057514;28;20914;-77
2023/06/11 08:06:02;;;;;;;;;;;;;;;32.85;66.67;98991.97;5062616;28;20369;-78
2023/06/11 08:08:28;;;;;;;;;;;;;;;33.40;63.30;98973.50;5060484;28;20003;-76
2023/06/11 08:10:53;;;;;;;;;;;;;;;32.97;66.31;98988.78;5062979;28;20366;-79
2023/06/11 08:13:21;;;;;;;;;;;;;;;34.49;60.05;98945.91;5060518;28;20131;-79
2023/06/11 08:15:47;;;;;;;;;;;;;;;33.79;63.26;98977.38;5060899;28;19920;-79
2023/06/11 08:18:12;;;;;;;;;;;;;;;33.48;60.70;98965.31;5059902;28;20275;-78
2023/06/11 08:20:37;;;;;;;;;;;;;;;32.18;66.64;99003.00;5061840;28;19913;-79
2023/06/11 08:23:03;;;;;;;;;;;;;;;32.77;61.88;98968.09;5061343;28;19920;-78
2023/06/11 08:25:28;;;;;;;;;;;;;;;32.46;62.19;98981.78;5056900;28;19921;-72
2023/06/11 08:27:53;;;;;;;;;;;;;;;32.09;61.96;98981.81;5056187;28;19927;-73
2023/06/11 08:30:18;;;;;;;;;;;;;;;34.61;60.53;98953.31;5058733;28;19916;-77
2023/06/11 08:32:44;;;;;;;;;;;;;;;32.98;56.16;98953.06;5059020;28;19952;-77
2023/06/11 08:35:09;;;;;;;;;;;;;;;33.13;50.81;98930.63;5056156;28;19916;-77
2023/06/11 08:37:34;;;;;;;;;;;;;;;33.96;55.51;98948.44;5056558;28;20012;-77
2023/06/11 08:40:00;;;;;;;;;;;;;;;35.27;57.11;98942.56;5057567;28;19922;-77
2023/06/11 08:42:25;;;;;;;;;;;;;;;36.43;53.46;98924.69;5058600;28;19920;-78
2023/06/11 08:44:50;;;;;;;;;;;;;;;35.53;53.77;98941.63;5057154;28;19962;-78
2023/06/11 08:47:16;;;;;;;;;;;;;;;35.87;45.12;98910.19;5053362;28;19917;-77
2023/06/11 08:49:41;;;;;;;;;;;;;;;35.95;45.79;98909.13;5056101;28;19924;-77
2023/06/11 08:52:06;;;;;;;;;;;;;;;35.33;49.59;98947.09;5057500;28;20010;-77
2023/06/11 08:54:31;;;;;;;;;;;;;;;35.11;49.95;98932.28;5055477;28;20015;-78
2023/06/11 08:56:57;;;;;;;;;;;;;;;34.56;49.19;98941.38;5056988;28;20592;-77
2023/06/11 08:59:22;;;;;;;;;;;;;;;33.29;48.73;98942.81;5053744;28;19925;-78
2023/06/11 09:01:50;;;;;;;;;;;;;;;33.63;52.18;98949.19;5057771;28;19920;-77
2023/06/11 09:04:19;;;;;;;;;;;;;;;34.99;53.16;98949.00;5057847;28;20409;-76
2023/06/11 09:06:58;;;;;;;;;;;;;;;34.20;50.65;98940.94;5055834;28;19923;-77
2023/06/11 09:09:23;;;;;;;;;;;;;;;35.83;45.54;98910.81;5054617;28;19920;-77
2023/06/11 09:11:48;;;;;;;;;;;;;;;35.47;43.65;98914.88;5055997;28;19917;-77
2023/06/11 09:14:14;;;;;;;;;;;;;;;35.74;47.47;98943.25;5055272;28;19973;-78
2023/06/11 09:16:40;;;;;;;;;;;;;;;35.01;45.26;98921.19;5056753;28;20014;-78
2023/06/11 09:19:05;;;;;;;;;;;;;;;36.27;44.31;98925.22;5056821;28;20282;-77
2023/06/11 09:21:30;;;;;;;;;;;;;;;34.51;46.67;98932.31;5059800;28;19921;-77
2023/06/11 09:24:09;;;;;;;;;;;;;;;35.04;47.35;98937.66;5058462;28;19927;-77
2023/06/11 09:26:35;;;;;;;;;;;;;;;35.62;43.55;98920.00;5051952;28;19995;-77
2023/06/11 09:29:00;;;;;;;;;;;;;;;34.81;42.43;98914.03;5057902;28;19917;-79
2023/06/11 09:31:25;;;;;;;;;;;;;;;38.36;38.54;98870.50;5054483;28;19920;-78
2023/06/11 09:33:52;;;;;;;;;;;;;;;35.30;40.35;98920.72;5056802;28;20498;-78
2023/06/11 09:36:18;;;;;;;;;;;;;;;35.48;43.43;98921.91;5054259;28;19960;-78
2023/06/11 09:38:43;;;;;;;;;;;;;;;36.25;41.87;98911.22;5055405;28;19919;-78
2023/06/11 09:41:08;;;;;;;;;;;;;;;34.56;43.42;98928.00;5056079;28;20294;-78
2023/06/11 09:43:34;;;;;;;;;;;;;;;34.84;46.39;98945.72;5038300;28;20883;-79
2023/06/11 09:46:00;;;;;;;;;;;;;;;36.69;43.93;98917.47;5054982;28;20515;-79
2023/06/11 09:48:25;;;;;;;;;;;;;;;34.97;39.03;98900.19;5052606;28;19917;-78
2023/06/11 09:50:53;;;;;;;;;;;;;;;35.33;39.84;98898.91;5055953;28;19920;-79
2023/06/11 09:53:19;;;;;;;;;;;;;;;37.78;39.17;98894.34;5056088;28;19924;-79
2023/06/11 09:55:50;;;;;;;;;;;;;;;35.76;40.17;98918.91;5057396;28;20024;-79
2023/06/11 09:58:22;;;;;;;;;;;;;;;33.65;43.70;98939.13;5052456;28;19920;-79
2023/06/11 10:00:48;;;;;;;;;;;;;;;34.18;41.23;98927.78;5051345;28;20294;-78
2023/06/11 10:03:13;;;;;;;;;;;;;;;34.58;40.54;98917.94;5056841;28;19916;-78
2023/06/11 10:05:38;;;;;;;;;;;;;;;34.18;43.92;98953.69;5055395;28;19923;-78
2023/06/11 10:08:12;;;;;;;;;;;;;;;35.26;42.74;98924.84;5054527;28;19916;-78
2023/06/11 10:10:40;;;;;;;;;;;;;;;34.68;39.06;98922.88;5061054;28;20908;-79
2023/06/11 10:13:06;;;;;;;;;;;;;;;34.87;42.74;98942.59;5058178;28;19924;-77
2023/06/11 10:15:31;;;;;;;;;;;;;;;34.72;47.33;98960.75;5061687;28;20276;-78
2023/06/11 10:17:57;;;;;;;;;;;;;;;37.35;44.73;98926.72;5063888;28;19931;-78
2023/06/11 10:20:29;;;;;;;;;;;;;;;37.78;38.23;98891.66;5059278;28;19924;-79
2023/06/11 10:23:05;;;;;;;;;;;;;;;36.80;39.95;98919.44;5061785;28;19916;-78
2023/06/11 10:25:34;;;;;;;;;;;;;;;36.56;39.39;98913.00;5059918;28;20338;-78
2023/06/11 10:27:59;;;;;;;;;;;;;;;36.10;41.46;98935.59;5059845;28;19943;-78
2023/06/11 10:30:24;;;;;;;;;;;;;;;36.31;43.89;98945.19;5039965;28;19920;-77
2023/06/11 10:32:58;;;;;;;;;;;;;;;36.12;38.99;98918.28;5061095;28;19979;-76
2023/06/11 10:35:30;;;;;;;;;;;;;;;36.02;38.69;98918.75;5063792;28;19927;-78
2023/06/11 10:38:05;;;;;;;;;;;;;;;37.14;39.84;98914.56;5060274;28;19959;-78
2023/06/11 10:40:37;;;;;;;;;;;;;;;34.94;40.93;98948.81;5060030;28;19920;-78
2023/06/11 10:43:14;;;;;;;;;;;;;;;37.23;40.25;98923.97;5058602;28;19986;-79
2023/06/11 10:45:40;;;;;;;;;;;;;;;34.57;41.13;98951.03;5058362;28;19952;-78
2023/06/11 10:48:05;;;;;;;;;;;;;;;36.21;36.90;98911.63;5058266;28;19955;-79
2023/06/11 10:50:34;;;;;;;;;;;;;;;35.49;39.31;98937.75;5060715;28;19916;-78
2023/06/11 10:53:01;;;;;;;;;;;;;;;34.48;40.25;98938.91;5058525;28;19928;-79
2023/06/11 10:55:29;;;;;;;;;;;;;;;36.26;37.86;98912.84;5058973;28;19921;-79
2023/06/11 10:57:54;;;;;;;;;;;;;;;37.96;37.89;98916.84;5056393;28;19943;-79
2023/06/11 11:00:20;;;;;;;;;;;;;;;35.92;38.53;98934.47;5059935;28;19920;-79
2023/06/11 11:02:46;;;;;;;;;;;;;;;36.40;40.06;98930.47;5060363;28;19916;-78
2023/06/11 11:05:12;;;;;;;;;;;;;;;37.85;39.70;98921.94;5058823;28;19992;-79
2023/06/11 11:07:37;;;;;;;;;;;;;;;38.45;36.92;98912.16;5059741;28;19916;-78
2023/06/11 11:10:04;;;;;;;;;;;;;;;36.38;42.82;98964.72;5057882;28;19920;-79
2023/06/11 11:12:42;;;;;;;;;;;;;;;35.92;39.46;98944.38;5058754;28;20319;-78
2023/06/11 11:15:08;;;;;;;;;;;;;;;36.38;40.10;98927.19;5053859;28;20390;-79
2023/06/11 11:17:33;;;;;;;;;;;;;;;38.84;38.18;98901.78;5059126;28;19961;-78
2023/06/11 11:19:58;;;;;;;;;;;;;;;37.69;36.69;98898.41;5058013;28;19917;-77
2023/06/11 11:22:29;;;;;;;;;;;;;;;38.15;39.52;98926.50;5064004;28;20377;-79
2023/06/11 11:24:57;;;;;;;;;;;;;;;37.36;40.38;98937.25;5057790;28;19917;-78
2023/06/11 11:27:22;;;;;;;;;;;;;;;35.41;42.84;98940.66;5060559;28;19999;-78
2023/06/11 11:29:48;;;;;;;;;;;;;;;37.96;37.95;98895.34;5056771;28;20019;-77
2023/06/11 11:32:13;;;;;;;;;;;;;;;38.02;37.25;98892.59;5060148;28;19962;-78
2023/06/11 11:34:38;;;;;;;;;;;;;;;38.49;42.19;98932.22;5052227;28;19959;-79
2023/06/11 11:37:04;;;;;;;;;;;;;;;37.31;40.62;98920.16;5035914;28;19924;-79
2023/06/11 11:39:30;;;;;;;;;;;;;;;36.85;38.01;98909.66;5049551;28;19920;-78
2023/06/11 11:41:56;;;;;;;;;;;;;;;37.05;39.79;98912.13;5033870;28;19920;-78
2023/06/11 11:44:22;;;;;;;;;;;;;;;35.80;41.45;98937.00;5058422;28;20819;-78
2023/06/11 11:46:47;;;;;;;;;;;;;;;36.04;41.41;98931.94;5057325;28;19916;-78
2023/06/11 11:49:12;;;;;;;;;;;;;;;35.38;41.28;98944.59;5060619;28;20264;-77
2023/06/11 11:51:41;;;;;;;;;;;;;;;35.16;41.83;98935.19;5059353;28;19917;-78
2023/06/11 11:54:07;;;;;;;;;;;;;;;34.49;42.99;98951.25;5059908;28;20011;-77
2023/06/11 11:56:33;;;;;;;;;;;;;;;36.55;42.44;98920.22;5061047;28;20081;-78
2023/06/11 11:58:58;;;;;;;;;;;;;;;37.54;38.83;98892.56;5055256;28;20328;-78
2023/06/11 12:01:30;;;;;;;;;;;;;;;38.73;42.54;98924.97;5059225;28;20057;-78
2023/06/11 12:03:56;;;;;;;;;;;;;;;37.92;39.27;98910.28;5057970;28;19916;-78
2023/06/11 12:06:22;;;;;;;;;;;;;;;37.43;40.68;98904.91;5058520;28;19916;-77
2023/06/11 12:08:48;;;;;;;;;;;;;;;36.88;45.01;98963.94;5058108;28;20019;-79
2023/06/11 12:11:13;;;;;;;;;;;;;;;37.85;38.35;98900.44;5059823;28;20007;-78
2023/06/11 12:13:38;;;;;;;;;;;;;;;36.97;37.89;98909.75;5060798;28;20011;-77
2023/06/11 12:16:03;;;;;;;;;;;;;;;36.51;42.19;98932.44;5057396;28;20071;-77
2023/06/11 12:18:29;;;;;;;;;;;;;;;37.21;37.30;98885.75;5059119;28;20117;-77
2023/06/11 12:20:54;;;;;;;;;;;;;;;37.43;37.76;98897.69;5060186;28;19916;-77
2023/06/11 12:23:19;;;;;;;;;;;;;;;34.99;44.71;98949.00;5059366;28;19917;-77
2023/06/11 12:25:45;;;;;;;;;;;;;;;36.77;42.72;98918.00;5058800;28;20019;-77
2023/06/11 12:28:10;;;;;;;;;;;;;;;36.42;41.92;98917.66;5059381;28;19916;-77
2023/06/11 12:30:36;;;;;;;;;;;;;;;37.18;41.06;98910.38;5059791;28;19927;-77
2023/06/11 12:33:01;;;;;;;;;;;;;;;36.89;38.68;98891.25;5057533;28;19921;-78
2023/06/11 12:35:27;;;;;;;;;;;;;;;36.84;39.70;98899.97;5056780;28;19924;-77
2023/06/11 12:37:52;;;;;;;;;;;;;;;36.84;41.80;98912.59;5058990;28;19963;-78
2023/06/11 12:40:17;;;;;;;;;;;;;;;37.31;38.77;98893.28;5060165;28;19916;-77